sensor_id;sensor_type;location;lat;lon;timestamp;P1;durP1;ratioP1;P2;durP2;ratioP2
42760;SDS011;31672;47.638;19.026;2022-07-24T00:03:17;6.72;;;6.07;;
42760;SDS011;31672;47.638;19.026;2022-07-24T00:08:22;9.55;;;7.75;;
42760;SDS011;31672;47.638;19.026;2022-07-24T00:13:25;8.98;;;7.80;;
42760;SDS011;31672;47.638;19.026;2022-07-24T00:18:28;9.98;;;8.00;;
42760;SDS011;31672;47.638;19.026;2022-07-24T00:23:31;7.90;;;6.50;;
42760;SDS011;31672;47.638;19.026;2022-07-24T00:28:34;8.45;;;6.75;;
42760;SDS011;31672;47.638;19.026;2022-07-24T00:33:38;7.78;;;6.80;;
42760;SDS011;31672;47.638;19.026;2022-07-24T00:38:40;9.07;;;6.85;;
42760;SDS011;31672;47.638;19.026;2022-07-24T00:49:10;9.25;;;6.90;;
42760;SDS011;31672;47.638;19.026;2022-07-24T00:54:22;7.68;;;6.88;;
42760;SDS011;31672;47.638;19.026;2022-07-24T00:59:26;7.97;;;6.68;;
42760;SDS011;31672;47.638;19.026;2022-07-24T01:04:29;8.45;;;6.50;;
42760;SDS011;31672;47.638;19.026;2022-07-24T01:09:33;7.57;;;6.25;;
42760;SDS011;31672;47.638;19.026;2022-07-24T01:14:37;7.72;;;6.65;;
42760;SDS011;31672;47.638;19.026;2022-07-24T01:19:41;6.57;;;5.97;;
42760;SDS011;31672;47.638;19.026;2022-07-24T01:24:44;7.18;;;6.22;;
42760;SDS011;31672;47.638;19.026;2022-07-24T01:29:50;10.50;;;6.32;;
42760;SDS011;31672;47.638;19.026;2022-07-24T01:34:54;6.95;;;5.68;;
42760;SDS011;31672;47.638;19.026;2022-07-24T01:39:57;7.15;;;5.20;;
42760;SDS011;31672;47.638;19.026;2022-07-24T01:45:00;8.63;;;5.70;;
42760;SDS011;31672;47.638;19.026;2022-07-24T01:50:03;8.65;;;5.35;;
42760;SDS011;31672;47.638;19.026;2022-07-24T01:55:06;7.22;;;5.50;;
42760;SDS011;31672;47.638;19.026;2022-07-24T02:00:10;7.03;;;5.05;;
42760;SDS011;31672;47.638;19.026;2022-07-24T02:05:15;5.15;;;4.65;;
42760;SDS011;31672;47.638;19.026;2022-07-24T02:10:18;5.00;;;4.50;;
42760;SDS011;31672;47.638;19.026;2022-07-24T02:15:21;5.88;;;5.00;;
42760;SDS011;31672;47.638;19.026;2022-07-24T02:20:27;6.53;;;5.05;;
42760;SDS011;31672;47.638;19.026;2022-07-24T02:25:31;5.15;;;4.60;;
42760;SDS011;31672;47.638;19.026;2022-07-24T02:30:34;5.53;;;4.05;;
42760;SDS011;31672;47.638;19.026;2022-07-24T02:35:38;6.20;;;5.05;;
42760;SDS011;31672;47.638;19.026;2022-07-24T02:40:41;5.32;;;4.80;;
42760;SDS011;31672;47.638;19.026;2022-07-24T02:45:44;7.05;;;5.25;;
42760;SDS011;31672;47.638;19.026;2022-07-24T02:50:54;8.00;;;5.53;;
42760;SDS011;31672;47.638;19.026;2022-07-24T02:55:57;6.72;;;5.30;;
42760;SDS011;31672;47.638;19.026;2022-07-24T03:01:00;7.93;;;5.25;;
42760;SDS011;31672;47.638;19.026;2022-07-24T03:06:03;6.57;;;5.53;;
42760;SDS011;31672;47.638;19.026;2022-07-24T03:11:06;9.13;;;5.43;;
42760;SDS011;31672;47.638;19.026;2022-07-24T03:16:09;6.70;;;6.00;;
42760;SDS011;31672;47.638;19.026;2022-07-24T03:21:13;7.20;;;5.75;;
42760;SDS011;31672;47.638;19.026;2022-07-24T03:26:37;7.25;;;5.80;;
42760;SDS011;31672;47.638;19.026;2022-07-24T03:31:40;7.50;;;6.07;;
42760;SDS011;31672;47.638;19.026;2022-07-24T03:36:43;6.32;;;5.70;;
42760;SDS011;31672;47.638;19.026;2022-07-24T03:41:46;9.05;;;5.93;;
42760;SDS011;31672;47.638;19.026;2022-07-24T03:46:49;8.45;;;6.40;;
42760;SDS011;31672;47.638;19.026;2022-07-24T03:51:52;6.47;;;5.88;;
42760;SDS011;31672;47.638;19.026;2022-07-24T03:56:55;7.32;;;5.43;;
42760;SDS011;31672;47.638;19.026;2022-07-24T04:01:58;5.72;;;5.15;;
42760;SDS011;31672;47.638;19.026;2022-07-24T04:07:01;8.73;;;5.38;;
42760;SDS011;31672;47.638;19.026;2022-07-24T04:12:04;7.60;;;6.15;;
42760;SDS011;31672;47.638;19.026;2022-07-24T04:17:07;6.97;;;5.15;;
42760;SDS011;31672;47.638;19.026;2022-07-24T04:22:11;7.45;;;5.40;;
42760;SDS011;31672;47.638;19.026;2022-07-24T04:27:14;7.68;;;5.53;;
42760;SDS011;31672;47.638;19.026;2022-07-24T04:32:17;6.20;;;5.60;;
42760;SDS011;31672;47.638;19.026;2022-07-24T04:37:20;8.88;;;5.32;;
42760;SDS011;31672;47.638;19.026;2022-07-24T04:42:24;8.00;;;5.25;;
42760;SDS011;31672;47.638;19.026;2022-07-24T04:47:27;7.60;;;5.80;;
42760;SDS011;31672;47.638;19.026;2022-07-24T04:52:30;7.40;;;6.47;;
42760;SDS011;31672;47.638;19.026;2022-07-24T04:57:33;8.07;;;5.82;;
42760;SDS011;31672;47.638;19.026;2022-07-24T05:02:36;8.40;;;6.60;;
42760;SDS011;31672;47.638;19.026;2022-07-24T05:07:40;7.13;;;6.30;;
42760;SDS011;31672;47.638;19.026;2022-07-24T05:12:42;7.50;;;6.00;;
42760;SDS011;31672;47.638;19.026;2022-07-24T05:17:46;8.90;;;6.57;;
42760;SDS011;31672;47.638;19.026;2022-07-24T05:22:49;8.75;;;6.45;;
42760;SDS011;31672;47.638;19.026;2022-07-24T05:27:52;9.48;;;6.40;;
42760;SDS011;31672;47.638;19.026;2022-07-24T05:32:55;8.18;;;7.05;;
42760;SDS011;31672;47.638;19.026;2022-07-24T05:37:58;8.00;;;6.93;;
42760;SDS011;31672;47.638;19.026;2022-07-24T05:43:01;8.05;;;7.22;;
42760;SDS011;31672;47.638;19.026;2022-07-24T05:48:04;8.73;;;7.57;;
42760;SDS011;31672;47.638;19.026;2022-07-24T05:53:07;9.00;;;7.68;;
42760;SDS011;31672;47.638;19.026;2022-07-24T05:58:10;9.07;;;7.00;;
42760;SDS011;31672;47.638;19.026;2022-07-24T06:03:13;7.95;;;7.15;;
42760;SDS011;31672;47.638;19.026;2022-07-24T06:08:15;8.57;;;6.40;;
42760;SDS011;31672;47.638;19.026;2022-07-24T06:13:18;7.95;;;6.78;;
42760;SDS011;31672;47.638;19.026;2022-07-24T06:18:22;8.05;;;6.15;;
42760;SDS011;31672;47.638;19.026;2022-07-24T06:23:26;8.07;;;7.28;;
42760;SDS011;31672;47.638;19.026;2022-07-24T06:28:29;8.55;;;7.25;;
42760;SDS011;31672;47.638;19.026;2022-07-24T06:33:32;8.57;;;7.68;;
42760;SDS011;31672;47.638;19.026;2022-07-24T06:38:36;8.43;;;7.65;;
42760;SDS011;31672;47.638;19.026;2022-07-24T06:43:39;8.68;;;7.65;;
42760;SDS011;31672;47.638;19.026;2022-07-24T06:48:42;8.57;;;7.68;;
42760;SDS011;31672;47.638;19.026;2022-07-24T06:53:45;9.30;;;7.30;;
42760;SDS011;31672;47.638;19.026;2022-07-24T06:58:49;8.90;;;7.60;;
42760;SDS011;31672;47.638;19.026;2022-07-24T07:03:52;7.72;;;7.03;;
42760;SDS011;31672;47.638;19.026;2022-07-24T07:08:55;9.45;;;7.70;;
42760;SDS011;31672;47.638;19.026;2022-07-24T07:13:58;8.48;;;7.65;;
42760;SDS011;31672;47.638;19.026;2022-07-24T07:19:01;8.55;;;7.63;;
42760;SDS011;31672;47.638;19.026;2022-07-24T07:24:05;7.80;;;7.00;;
42760;SDS011;31672;47.638;19.026;2022-07-24T07:29:08;8.07;;;7.30;;
42760;SDS011;31672;47.638;19.026;2022-07-24T07:34:11;7.70;;;6.90;;
42760;SDS011;31672;47.638;19.026;2022-07-24T07:39:14;8.32;;;6.55;;
42760;SDS011;31672;47.638;19.026;2022-07-24T07:44:17;7.57;;;6.88;;
42760;SDS011;31672;47.638;19.026;2022-07-24T07:49:20;8.60;;;6.93;;
42760;SDS011;31672;47.638;19.026;2022-07-24T07:54:23;7.32;;;6.63;;
42760;SDS011;31672;47.638;19.026;2022-07-24T07:59:26;8.48;;;6.88;;
42760;SDS011;31672;47.638;19.026;2022-07-24T08:04:29;7.03;;;6.20;;
42760;SDS011;31672;47.638;19.026;2022-07-24T08:09:33;6.05;;;5.50;;
42760;SDS011;31672;47.638;19.026;2022-07-24T08:14:36;7.13;;;6.43;;
42760;SDS011;31672;47.638;19.026;2022-07-24T08:19:39;8.05;;;7.20;;
42760;SDS011;31672;47.638;19.026;2022-07-24T08:24:42;7.50;;;6.80;;
42760;SDS011;31672;47.638;19.026;2022-07-24T08:29:45;8.48;;;6.63;;
42760;SDS011;31672;47.638;19.026;2022-07-24T08:34:48;7.28;;;6.57;;
42760;SDS011;31672;47.638;19.026;2022-07-24T08:39:52;6.38;;;5.78;;
42760;SDS011;31672;47.638;19.026;2022-07-24T08:44:56;6.25;;;5.65;;
42760;SDS011;31672;47.638;19.026;2022-07-24T08:50:00;6.00;;;5.40;;
42760;SDS011;31672;47.638;19.026;2022-07-24T08:55:06;6.50;;;5.55;;
42760;SDS011;31672;47.638;19.026;2022-07-24T09:00:09;7.80;;;5.78;;
42760;SDS011;31672;47.638;19.026;2022-07-24T09:05:14;7.90;;;5.78;;
42760;SDS011;31672;47.638;19.026;2022-07-24T09:10:21;5.43;;;4.93;;
42760;SDS011;31672;47.638;19.026;2022-07-24T09:15:41;5.68;;;5.18;;
42760;SDS011;31672;47.638;19.026;2022-07-24T09:20:50;5.70;;;5.20;;
42760;SDS011;31672;47.638;19.026;2022-07-24T09:25:53;7.07;;;5.72;;
42760;SDS011;31672;47.638;19.026;2022-07-24T09:31:00;6.07;;;5.47;;
42760;SDS011;31672;47.638;19.026;2022-07-24T09:36:14;7.45;;;5.60;;
42760;SDS011;31672;47.638;19.026;2022-07-24T09:41:21;5.70;;;5.20;;
42760;SDS011;31672;47.638;19.026;2022-07-24T09:46:26;6.63;;;6.03;;
42760;SDS011;31672;47.638;19.026;2022-07-24T09:51:29;6.78;;;5.55;;
42760;SDS011;31672;47.638;19.026;2022-07-24T09:56:34;6.88;;;6.28;;
42760;SDS011;31672;47.638;19.026;2022-07-24T10:01:38;6.32;;;5.80;;
42760;SDS011;31672;47.638;19.026;2022-07-24T10:06:45;6.32;;;5.72;;
42760;SDS011;31672;47.638;19.026;2022-07-24T10:11:50;6.20;;;5.60;;
42760;SDS011;31672;47.638;19.026;2022-07-24T10:17:06;6.57;;;5.57;;
42760;SDS011;31672;47.638;19.026;2022-07-24T10:22:25;6.85;;;5.63;;
42760;SDS011;31672;47.638;19.026;2022-07-24T10:27:49;8.48;;;5.60;;
42760;SDS011;31672;47.638;19.026;2022-07-24T10:32:56;7.33;;;5.50;;
42760;SDS011;31672;47.638;19.026;2022-07-24T10:43:26;6.18;;;5.38;;
42760;SDS011;31672;47.638;19.026;2022-07-24T10:48:32;4.93;;;4.53;;
42760;SDS011;31672;47.638;19.026;2022-07-24T11:04:23;4.85;;;4.40;;
42760;SDS011;31672;47.638;19.026;2022-07-24T11:09:29;5.28;;;4.00;;
42760;SDS011;31672;47.638;19.026;2022-07-24T11:19:45;6.90;;;3.58;;
42760;SDS011;31672;47.638;19.026;2022-07-24T11:25:12;5.57;;;4.10;;
42760;SDS011;31672;47.638;19.026;2022-07-24T11:30:30;4.72;;;4.20;;
42760;SDS011;31672;47.638;19.026;2022-07-24T11:35:33;4.95;;;4.45;;
42760;SDS011;31672;47.638;19.026;2022-07-24T11:40:40;4.03;;;3.38;;
42760;SDS011;31672;47.638;19.026;2022-07-24T11:45:50;4.82;;;4.32;;
42760;SDS011;31672;47.638;19.026;2022-07-24T11:51:04;4.22;;;3.88;;
42760;SDS011;31672;47.638;19.026;2022-07-24T11:56:29;4.35;;;3.90;;
42760;SDS011;31672;47.638;19.026;2022-07-24T12:01:33;4.20;;;3.53;;
42760;SDS011;31672;47.638;19.026;2022-07-24T12:06:36;4.57;;;3.53;;
42760;SDS011;31672;47.638;19.026;2022-07-24T12:11:39;5.05;;;3.20;;
42760;SDS011;31672;47.638;19.026;2022-07-24T12:16:42;4.10;;;3.70;;
42760;SDS011;31672;47.638;19.026;2022-07-24T12:21:52;4.70;;;4.15;;
42760;SDS011;31672;47.638;19.026;2022-07-24T12:26:57;3.50;;;3.20;;
42760;SDS011;31672;47.638;19.026;2022-07-24T12:32:17;3.35;;;3.00;;
42760;SDS011;31672;47.638;19.026;2022-07-24T12:37:21;2.70;;;2.50;;
42760;SDS011;31672;47.638;19.026;2022-07-24T12:42:28;2.45;;;2.13;;
42760;SDS011;31672;47.638;19.026;2022-07-24T12:47:35;2.50;;;2.30;;
42760;SDS011;31672;47.638;19.026;2022-07-24T12:53:20;3.03;;;2.72;;
42760;SDS011;31672;47.638;19.026;2022-07-24T12:58:22;2.80;;;2.47;;
42760;SDS011;31672;47.638;19.026;2022-07-24T13:03:25;3.22;;;2.92;;
42760;SDS011;31672;47.638;19.026;2022-07-24T13:08:28;3.40;;;2.47;;
42760;SDS011;31672;47.638;19.026;2022-07-24T13:13:32;4.85;;;2.80;;
42760;SDS011;31672;47.638;19.026;2022-07-24T13:18:35;3.53;;;2.95;;
42760;SDS011;31672;47.638;19.026;2022-07-24T13:23:38;2.75;;;2.50;;
42760;SDS011;31672;47.638;19.026;2022-07-24T13:28:40;2.85;;;2.33;;
42760;SDS011;31672;47.638;19.026;2022-07-24T13:33:44;3.95;;;2.55;;
42760;SDS011;31672;47.638;19.026;2022-07-24T13:38:51;5.75;;;2.65;;
42760;SDS011;31672;47.638;19.026;2022-07-24T13:43:54;3.67;;;2.10;;
42760;SDS011;31672;47.638;19.026;2022-07-24T13:48:57;3.00;;;2.47;;
42760;SDS011;31672;47.638;19.026;2022-07-24T13:54:03;2.80;;;2.60;;
42760;SDS011;31672;47.638;19.026;2022-07-24T13:59:07;3.47;;;2.55;;
42760;SDS011;31672;47.638;19.026;2022-07-24T14:04:11;2.55;;;2.10;;
42760;SDS011;31672;47.638;19.026;2022-07-24T14:09:27;3.08;;;2.28;;
42760;SDS011;31672;47.638;19.026;2022-07-24T14:14:30;3.35;;;2.25;;
42760;SDS011;31672;47.638;19.026;2022-07-24T14:19:33;2.60;;;2.38;;
42760;SDS011;31672;47.638;19.026;2022-07-24T14:24:36;2.78;;;2.33;;
42760;SDS011;31672;47.638;19.026;2022-07-24T14:29:41;2.55;;;2.35;;
42760;SDS011;31672;47.638;19.026;2022-07-24T14:34:44;2.65;;;2.25;;
42760;SDS011;31672;47.638;19.026;2022-07-24T14:39:47;3.40;;;2.20;;
42760;SDS011;31672;47.638;19.026;2022-07-24T14:44:50;5.15;;;1.88;;
42760;SDS011;31672;47.638;19.026;2022-07-24T14:49:54;3.20;;;1.95;;
42760;SDS011;31672;47.638;19.026;2022-07-24T14:54:57;2.42;;;1.83;;
42760;SDS011;31672;47.638;19.026;2022-07-24T15:00:02;3.25;;;1.75;;
42760;SDS011;31672;47.638;19.026;2022-07-24T15:05:08;2.60;;;1.98;;
42760;SDS011;31672;47.638;19.026;2022-07-24T15:10:11;2.17;;;1.65;;
42760;SDS011;31672;47.638;19.026;2022-07-24T15:15:14;3.10;;;1.67;;
42760;SDS011;31672;47.638;19.026;2022-07-24T15:20:19;2.08;;;1.67;;
42760;SDS011;31672;47.638;19.026;2022-07-24T15:25:22;2.15;;;1.80;;
42760;SDS011;31672;47.638;19.026;2022-07-24T15:30:25;2.15;;;1.90;;
42760;SDS011;31672;47.638;19.026;2022-07-24T15:35:33;1.88;;;1.45;;
42760;SDS011;31672;47.638;19.026;2022-07-24T15:40:36;1.88;;;1.48;;
42760;SDS011;31672;47.638;19.026;2022-07-24T15:45:39;1.70;;;1.60;;
42760;SDS011;31672;47.638;19.026;2022-07-24T15:50:42;3.45;;;1.90;;
42760;SDS011;31672;47.638;19.026;2022-07-24T15:55:45;2.28;;;1.63;;
42760;SDS011;31672;47.638;19.026;2022-07-24T16:00:48;2.17;;;1.70;;
42760;SDS011;31672;47.638;19.026;2022-07-24T16:05:57;2.80;;;1.52;;
42760;SDS011;31672;47.638;19.026;2022-07-24T16:11:00;2.97;;;1.60;;
42760;SDS011;31672;47.638;19.026;2022-07-24T16:16:07;1.95;;;1.60;;
42760;SDS011;31672;47.638;19.026;2022-07-24T16:21:11;2.22;;;1.80;;
42760;SDS011;31672;47.638;19.026;2022-07-24T16:26:14;2.53;;;1.70;;
42760;SDS011;31672;47.638;19.026;2022-07-24T16:31:17;3.60;;;1.75;;
42760;SDS011;31672;47.638;19.026;2022-07-24T16:36:20;2.30;;;1.60;;
42760;SDS011;31672;47.638;19.026;2022-07-24T16:41:23;2.03;;;1.52;;
42760;SDS011;31672;47.638;19.026;2022-07-24T16:46:33;1.92;;;1.38;;
42760;SDS011;31672;47.638;19.026;2022-07-24T16:51:37;5.00;;;1.90;;
42760;SDS011;31672;47.638;19.026;2022-07-24T16:56:45;2.38;;;1.85;;
42760;SDS011;31672;47.638;19.026;2022-07-24T17:01:48;2.33;;;1.70;;
42760;SDS011;31672;47.638;19.026;2022-07-24T17:06:51;2.88;;;1.85;;
42760;SDS011;31672;47.638;19.026;2022-07-24T17:11:54;1.90;;;1.60;;
42760;SDS011;31672;47.638;19.026;2022-07-24T17:16:59;2.63;;;2.10;;
42760;SDS011;31672;47.638;19.026;2022-07-24T17:22:15;2.10;;;1.73;;
42760;SDS011;31672;47.638;19.026;2022-07-24T17:27:23;2.53;;;1.60;;
42760;SDS011;31672;47.638;19.026;2022-07-24T17:32:26;2.58;;;1.90;;
42760;SDS011;31672;47.638;19.026;2022-07-24T17:37:29;2.85;;;2.10;;
42760;SDS011;31672;47.638;19.026;2022-07-24T17:42:33;2.67;;;2.00;;
42760;SDS011;31672;47.638;19.026;2022-07-24T17:47:36;3.10;;;2.03;;
42760;SDS011;31672;47.638;19.026;2022-07-24T17:52:40;2.13;;;1.92;;
42760;SDS011;31672;47.638;19.026;2022-07-24T17:57:43;3.47;;;2.33;;
42760;SDS011;31672;47.638;19.026;2022-07-24T18:02:46;2.45;;;2.03;;
42760;SDS011;31672;47.638;19.026;2022-07-24T18:07:49;3.47;;;2.30;;
42760;SDS011;31672;47.638;19.026;2022-07-24T18:12:52;3.70;;;2.03;;
42760;SDS011;31672;47.638;19.026;2022-07-24T18:17:55;4.45;;;2.05;;
42760;SDS011;31672;47.638;19.026;2022-07-24T18:22:58;2.33;;;1.80;;
42760;SDS011;31672;47.638;19.026;2022-07-24T18:28:01;3.45;;;1.90;;
42760;SDS011;31672;47.638;19.026;2022-07-24T18:33:04;2.15;;;1.60;;
42760;SDS011;31672;47.638;19.026;2022-07-24T18:38:09;5.53;;;1.90;;
42760;SDS011;31672;47.638;19.026;2022-07-24T18:43:11;2.83;;;1.95;;
42760;SDS011;31672;47.638;19.026;2022-07-24T18:48:19;2.80;;;1.75;;
42760;SDS011;31672;47.638;19.026;2022-07-24T18:53:23;4.28;;;2.03;;
42760;SDS011;31672;47.638;19.026;2022-07-24T18:58:26;4.57;;;2.05;;
42760;SDS011;31672;47.638;19.026;2022-07-24T19:03:29;6.05;;;2.03;;
42760;SDS011;31672;47.638;19.026;2022-07-24T19:08:32;3.00;;;1.98;;
42760;SDS011;31672;47.638;19.026;2022-07-24T19:13:35;2.08;;;1.80;;
42760;SDS011;31672;47.638;19.026;2022-07-24T19:18:38;2.53;;;1.80;;
42760;SDS011;31672;47.638;19.026;2022-07-24T19:23:42;3.97;;;1.98;;
42760;SDS011;31672;47.638;19.026;2022-07-24T19:28:46;2.75;;;2.30;;
42760;SDS011;31672;47.638;19.026;2022-07-24T19:33:49;4.07;;;2.15;;
42760;SDS011;31672;47.638;19.026;2022-07-24T19:38:54;2.40;;;1.95;;
42760;SDS011;31672;47.638;19.026;2022-07-24T19:43:57;4.93;;;1.70;;
42760;SDS011;31672;47.638;19.026;2022-07-24T19:49:00;1.75;;;1.60;;
42760;SDS011;31672;47.638;19.026;2022-07-24T19:54:05;2.70;;;2.05;;
42760;SDS011;31672;47.638;19.026;2022-07-24T19:59:10;2.60;;;2.00;;
42760;SDS011;31672;47.638;19.026;2022-07-24T20:04:13;2.47;;;2.00;;
42760;SDS011;31672;47.638;19.026;2022-07-24T20:09:16;3.00;;;1.98;;
42760;SDS011;31672;47.638;19.026;2022-07-24T20:14:19;2.13;;;1.85;;
42760;SDS011;31672;47.638;19.026;2022-07-24T20:19:22;3.80;;;1.80;;
42760;SDS011;31672;47.638;19.026;2022-07-24T20:24:25;3.45;;;2.10;;
42760;SDS011;31672;47.638;19.026;2022-07-24T20:29:28;4.13;;;1.92;;
42760;SDS011;31672;47.638;19.026;2022-07-24T20:34:31;2.25;;;1.77;;
42760;SDS011;31672;47.638;19.026;2022-07-24T20:39:34;2.42;;;2.03;;
42760;SDS011;31672;47.638;19.026;2022-07-24T20:44:40;4.25;;;2.35;;
42760;SDS011;31672;47.638;19.026;2022-07-24T20:49:43;3.33;;;2.15;;
42760;SDS011;31672;47.638;19.026;2022-07-24T20:54:47;2.85;;;2.10;;
42760;SDS011;31672;47.638;19.026;2022-07-24T20:59:51;3.22;;;2.42;;
42760;SDS011;31672;47.638;19.026;2022-07-24T21:04:54;4.25;;;2.30;;
42760;SDS011;31672;47.638;19.026;2022-07-24T21:09:57;2.03;;;1.80;;
42760;SDS011;31672;47.638;19.026;2022-07-24T21:15:00;2.75;;;1.98;;
42760;SDS011;31672;47.638;19.026;2022-07-24T21:20:03;2.40;;;1.90;;
42760;SDS011;31672;47.638;19.026;2022-07-24T21:25:07;4.13;;;2.47;;
42760;SDS011;31672;47.638;19.026;2022-07-24T21:30:10;2.92;;;2.03;;
42760;SDS011;31672;47.638;19.026;2022-07-24T21:35:13;4.53;;;2.22;;
42760;SDS011;31672;47.638;19.026;2022-07-24T21:40:16;4.60;;;2.22;;
42760;SDS011;31672;47.638;19.026;2022-07-24T21:45:19;3.75;;;1.90;;
42760;SDS011;31672;47.638;19.026;2022-07-24T21:50:24;3.65;;;2.10;;
42760;SDS011;31672;47.638;19.026;2022-07-24T21:55:27;7.40;;;2.55;;
42760;SDS011;31672;47.638;19.026;2022-07-24T22:00:38;2.20;;;1.98;;
42760;SDS011;31672;47.638;19.026;2022-07-24T22:05:43;2.97;;;2.03;;
42760;SDS011;31672;47.638;19.026;2022-07-24T22:10:47;6.15;;;2.40;;
42760;SDS011;31672;47.638;19.026;2022-07-24T22:15:50;4.78;;;2.63;;
42760;SDS011;31672;47.638;19.026;2022-07-24T22:20:57;3.28;;;2.33;;
42760;SDS011;31672;47.638;19.026;2022-07-24T22:26:01;2.85;;;2.35;;
42760;SDS011;31672;47.638;19.026;2022-07-24T22:31:04;2.33;;;2.05;;
42760;SDS011;31672;47.638;19.026;2022-07-24T22:36:07;4.95;;;2.20;;
42760;SDS011;31672;47.638;19.026;2022-07-24T22:41:15;2.53;;;2.20;;
42760;SDS011;31672;47.638;19.026;2022-07-24T22:46:18;4.80;;;2.50;;
42760;SDS011;31672;47.638;19.026;2022-07-24T22:51:22;3.92;;;2.00;;
42760;SDS011;31672;47.638;19.026;2022-07-24T22:56:28;2.53;;;2.20;;
42760;SDS011;31672;47.638;19.026;2022-07-24T23:01:35;2.90;;;2.10;;
42760;SDS011;31672;47.638;19.026;2022-07-24T23:06:38;4.00;;;2.42;;
42760;SDS011;31672;47.638;19.026;2022-07-24T23:11:41;3.78;;;2.20;;
42760;SDS011;31672;47.638;19.026;2022-07-24T23:16:44;3.83;;;2.05;;
42760;SDS011;31672;47.638;19.026;2022-07-24T23:21:47;3.67;;;2.80;;
42760;SDS011;31672;47.638;19.026;2022-07-24T23:26:50;2.60;;;2.20;;
42760;SDS011;31672;47.638;19.026;2022-07-24T23:31:53;3.42;;;2.10;;
42760;SDS011;31672;47.638;19.026;2022-07-24T23:36:56;5.65;;;2.60;;
42760;SDS011;31672;47.638;19.026;2022-07-24T23:42:00;3.00;;;2.08;;
42760;SDS011;31672;47.638;19.026;2022-07-24T23:47:03;3.90;;;2.35;;
42760;SDS011;31672;47.638;19.026;2022-07-24T23:52:07;6.03;;;2.45;;
42760;SDS011;31672;47.638;19.026;2022-07-24T23:57:11;5.97;;;2.65;;
